sensor_id;sensor_type;location;lat;lon;timestamp;temperature;humidity
29255;DHT22;16277;48.890;2.306;2024-03-08T00:14:15;13.40;99.90
29255;DHT22;16277;48.890;2.306;2024-03-08T00:29:19;13.20;99.90
29255;DHT22;16277;48.890;2.306;2024-03-08T00:44:25;13.10;99.90
29255;DHT22;16277;48.890;2.306;2024-03-08T00:59:30;13.30;99.90
29255;DHT22;16277;48.890;2.306;2024-03-08T01:14:36;12.50;99.90
29255;DHT22;16277;48.890;2.306;2024-03-08T01:29:40;12.40;99.90
29255;DHT22;16277;48.890;2.306;2024-03-08T01:44:45;12.10;99.90
29255;DHT22;16277;48.890;2.306;2024-03-08T01:59:50;12.40;99.90
29255;DHT22;16277;48.890;2.306;2024-03-08T02:14:57;12.60;99.90
29255;DHT22;16277;48.890;2.306;2024-03-08T02:30:03;12.60;99.90
29255;DHT22;16277;48.890;2.306;2024-03-08T02:45:09;12.70;99.90
29255;DHT22;16277;48.890;2.306;2024-03-08T03:00:14;12.30;99.90
29255;DHT22;16277;48.890;2.306;2024-03-08T03:15:20;12.50;99.90
29255;DHT22;16277;48.890;2.306;2024-03-08T03:30:28;12.30;99.90
29255;DHT22;16277;48.890;2.306;2024-03-08T03:45:37;12.30;99.90
29255;DHT22;16277;48.890;2.306;2024-03-08T04:00:41;12.10;99.90
29255;DHT22;16277;48.890;2.306;2024-03-08T04:15:46;11.90;99.90
29255;DHT22;16277;48.890;2.306;2024-03-08T04:30:52;11.50;99.90
29255;DHT22;16277;48.890;2.306;2024-03-08T04:45:57;12.20;99.90
29255;DHT22;16277;48.890;2.306;2024-03-08T05:01:02;12.20;99.90
29255;DHT22;16277;48.890;2.306;2024-03-08T05:16:07;11.80;99.90
29255;DHT22;16277;48.890;2.306;2024-03-08T05:31:18;11.90;99.90
29255;DHT22;16277;48.890;2.306;2024-03-08T05:46:24;11.70;99.90
29255;DHT22;16277;48.890;2.306;2024-03-08T06:01:29;11.60;99.90
29255;DHT22;16277;48.890;2.306;2024-03-08T06:16:34;11.70;99.90
29255;DHT22;16277;48.890;2.306;2024-03-08T06:31:39;11.60;99.90
29255;DHT22;16277;48.890;2.306;2024-03-08T06:46:44;11.10;99.90
29255;DHT22;16277;48.890;2.306;2024-03-08T07:01:49;11.90;99.90
29255;DHT22;16277;48.890;2.306;2024-03-08T07:16:53;12.00;99.90
29255;DHT22;16277;48.890;2.306;2024-03-08T07:32:00;11.20;99.90
29255;DHT22;16277;48.890;2.306;2024-03-08T07:47:15;11.70;99.90
29255;DHT22;16277;48.890;2.306;2024-03-08T08:02:24;12.00;99.90
29255;DHT22;16277;48.890;2.306;2024-03-08T08:17:29;11.80;99.90
29255;DHT22;16277;48.890;2.306;2024-03-08T08:32:34;12.50;99.90
29255;DHT22;16277;48.890;2.306;2024-03-08T08:47:39;12.00;99.90
29255;DHT22;16277;48.890;2.306;2024-03-08T09:02:45;12.30;99.90
29255;DHT22;16277;48.890;2.306;2024-03-08T09:17:50;12.30;99.90
29255;DHT22;16277;48.890;2.306;2024-03-08T09:32:55;12.50;99.90
29255;DHT22;16277;48.890;2.306;2024-03-08T09:48:01;13.10;99.90
29255;DHT22;16277;48.890;2.306;2024-03-08T10:03:06;13.20;99.90
29255;DHT22;16277;48.890;2.306;2024-03-08T10:18:13;13.40;99.90
29255;DHT22;16277;48.890;2.306;2024-03-08T10:33:18;13.70;99.90
29255;DHT22;16277;48.890;2.306;2024-03-08T10:48:28;13.90;99.90
29255;DHT22;16277;48.890;2.306;2024-03-08T11:03:47;14.70;99.90
29255;DHT22;16277;48.890;2.306;2024-03-08T11:18:58;15.10;99.90
29255;DHT22;16277;48.890;2.306;2024-03-08T11:34:15;15.50;99.40
29255;DHT22;16277;48.890;2.306;2024-03-08T11:49:22;15.80;99.00
29255;DHT22;16277;48.890;2.306;2024-03-08T12:04:27;16.30;98.70
29255;DHT22;16277;48.890;2.306;2024-03-08T12:19:31;16.90;98.10
29255;DHT22;16277;48.890;2.306;2024-03-08T12:34:36;16.50;98.90
29255;DHT22;16277;48.890;2.306;2024-03-08T12:49:41;16.80;98.60
29255;DHT22;16277;48.890;2.306;2024-03-08T13:04:45;16.70;98.80
29255;DHT22;16277;48.890;2.306;2024-03-08T13:19:58;17.10;98.40
29255;DHT22;16277;48.890;2.306;2024-03-08T13:35:04;16.90;98.70
29255;DHT22;16277;48.890;2.306;2024-03-08T13:50:15;16.90;98.80
29255;DHT22;16277;48.890;2.306;2024-03-08T14:05:25;16.90;98.90
29255;DHT22;16277;48.890;2.306;2024-03-08T14:20:30;17.10;98.40
29255;DHT22;16277;48.890;2.306;2024-03-08T14:35:35;17.10;98.20
29255;DHT22;16277;48.890;2.306;2024-03-08T14:50:39;17.60;97.30
29255;DHT22;16277;48.890;2.306;2024-03-08T15:05:44;18.00;96.40
29255;DHT22;16277;48.890;2.306;2024-03-08T15:20:52;18.20;96.40
29255;DHT22;16277;48.890;2.306;2024-03-08T15:35:57;19.00;95.40
29255;DHT22;16277;48.890;2.306;2024-03-08T15:51:04;19.30;94.20
29255;DHT22;16277;48.890;2.306;2024-03-08T16:06:09;19.60;93.60
29255;DHT22;16277;48.890;2.306;2024-03-08T16:21:14;19.30;93.20
29255;DHT22;16277;48.890;2.306;2024-03-08T16:36:19;19.20;93.20
29255;DHT22;16277;48.890;2.306;2024-03-08T16:51:23;18.50;94.00
29255;DHT22;16277;48.890;2.306;2024-03-08T17:06:28;17.80;94.70
29255;DHT22;16277;48.890;2.306;2024-03-08T17:21:33;17.60;95.00
29255;DHT22;16277;48.890;2.306;2024-03-08T17:36:38;17.30;94.90
29255;DHT22;16277;48.890;2.306;2024-03-08T17:51:43;17.10;94.50
29255;DHT22;16277;48.890;2.306;2024-03-08T18:06:48;16.90;94.90
29255;DHT22;16277;48.890;2.306;2024-03-08T18:21:56;16.70;94.80
29255;DHT22;16277;48.890;2.306;2024-03-08T18:37:00;16.60;94.60
29255;DHT22;16277;48.890;2.306;2024-03-08T18:52:06;16.70;94.40
29255;DHT22;16277;48.890;2.306;2024-03-08T19:07:11;16.30;94.60
29255;DHT22;16277;48.890;2.306;2024-03-08T19:22:15;16.10;95.60
29255;DHT22;16277;48.890;2.306;2024-03-08T19:37:21;16.40;96.00
29255;DHT22;16277;48.890;2.306;2024-03-08T19:52:25;16.10;96.20
29255;DHT22;16277;48.890;2.306;2024-03-08T20:07:30;15.50;97.60
29255;DHT22;16277;48.890;2.306;2024-03-08T20:22:34;15.40;98.20
29255;DHT22;16277;48.890;2.306;2024-03-08T20:37:41;15.40;98.70
29255;DHT22;16277;48.890;2.306;2024-03-08T20:52:45;15.10;99.40
29255;DHT22;16277;48.890;2.306;2024-03-08T21:07:53;15.10;99.60
29255;DHT22;16277;48.890;2.306;2024-03-08T21:22:57;15.00;99.50
29255;DHT22;16277;48.890;2.306;2024-03-08T21:38:03;14.60;99.90
29255;DHT22;16277;48.890;2.306;2024-03-08T21:53:10;14.80;99.70
29255;DHT22;16277;48.890;2.306;2024-03-08T22:08:29;14.90;99.90
29255;DHT22;16277;48.890;2.306;2024-03-08T22:23:35;14.30;99.90
29255;DHT22;16277;48.890;2.306;2024-03-08T22:38:41;14.70;99.90
29255;DHT22;16277;48.890;2.306;2024-03-08T22:53:45;14.60;99.90
29255;DHT22;16277;48.890;2.306;2024-03-08T23:08:50;14.80;99.90
29255;DHT22;16277;48.890;2.306;2024-03-08T23:23:54;14.80;99.90
29255;DHT22;16277;48.890;2.306;2024-03-08T23:38:59;14.80;99.90
29255;DHT22;16277;48.890;2.306;2024-03-08T23:54:04;14.90;99.90
